Time;durP1;ratioP1;P1;durP2;ratioP2;P2;SDS_P1;SDS_P2;PMS_P1;PMS_P2;Temp;Humidity;BMP_temperature;BMP_pressure;BME280_temperature;BME280_humidity;BME280_pressure;Samples;Min_cycle;Max_cycle;Signal;HPM_P1;HPM_P2
2021/09/10 00:02:12;;;;;;;;;22.00;19.50;;;;;10.50;90.24;99866.50;6752920;19;2498109;-59
2021/09/10 00:04:40;;;;;;;;;20.50;20.50;;;;;10.26;91.30;99874.13;6752510;19;2498096;-59
2021/09/10 00:07:08;;;;;;;;;22.50;21.00;;;;;10.19;92.48;99873.63;6752313;19;2825163;-59
2021/09/10 00:09:37;;;;;;;;;22.00;19.00;;;;;10.37;91.87;99878.91;6753561;19;2827281;-59
2021/09/10 00:12:05;;;;;;;;;22.67;20.00;;;;;10.49;91.25;99880.88;6753873;19;3573085;-59
2021/09/10 00:14:34;;;;;;;;;26.00;20.50;;;;;10.92;89.52;99889.94;6751068;19;2841856;-59
2021/09/10 00:17:02;;;;;;;;;20.50;19.00;;;;;11.18;87.95;99884.84;6748654;19;2498089;-60
2021/09/10 00:19:29;;;;;;;;;18.00;17.00;;;;;10.77;88.87;99875.63;6751336;19;2498084;-59
2021/09/10 00:21:58;;;;;;;;;28.50;22.00;;;;;10.50;90.50;99871.88;6753864;19;2838696;-59
2021/09/10 00:24:25;;;;;;;;;25.50;20.00;;;;;10.82;89.64;99891.47;6750211;19;2498120;-60
2021/09/10 00:26:54;;;;;;;;;23.00;22.00;;;;;11.17;87.72;99873.22;6751883;19;2841860;-59
2021/09/10 00:29:22;;;;;;;;;28.50;21.50;;;;;10.39;89.92;99885.06;6751397;19;2836620;-60
2021/09/10 00:31:51;;;;;;;;;20.50;20.00;;;;;10.29;91.47;99882.91;6752232;19;2823095;-60
2021/09/10 00:34:18;;;;;;;;;29.00;22.00;;;;;10.93;88.66;99885.47;6750447;19;2498080;-59
2021/09/10 00:36:46;;;;;;;;;23.00;22.00;;;;;10.63;89.06;99883.63;6752619;19;2496112;-59
2021/09/10 00:39:15;;;;;;;;;20.50;19.50;;;;;10.10;91.13;99879.50;6751656;19;2481466;-59
2021/09/10 00:41:43;;;;;;;;;21.00;21.00;;;;;10.21;91.74;99878.88;6753104;19;2493945;-59
2021/09/10 00:44:10;;;;;;;;;23.00;20.50;;;;;10.27;90.85;99881.25;6744729;19;2498159;-59
2021/09/10 00:46:38;;;;;;;;;25.50;19.00;;;;;10.61;89.19;99880.19;6751213;19;2491847;-59
2021/09/10 00:49:07;;;;;;;;;18.33;18.33;;;;;10.33;91.01;99873.72;6751947;19;3559547;-60
2021/09/10 00:51:35;;;;;;;;;24.00;20.00;;;;;10.26;90.67;99872.28;6749649;19;2498127;-59
2021/09/10 00:54:04;;;;;;;;;18.00;18.00;;;;;10.20;90.98;99879.84;6749987;19;3562708;-60
2021/09/10 00:56:33;;;;;;;;;16.67;16.67;;;;;10.60;89.92;99874.88;6750611;19;3560561;-59
2021/09/10 00:59:03;;;;;;;;;20.00;18.50;;;;;10.59;90.18;99881.22;6752713;19;2498112;-59
2021/09/10 01:01:33;;;;;;;;;19.00;17.33;;;;;10.58;90.25;99874.09;6751564;19;3549108;-60
2021/09/10 01:04:03;;;;;;;;;20.00;19.00;;;;;10.33;90.54;99876.41;6751762;19;2498096;-59
2021/09/10 01:06:32;;;;;;;;;19.00;17.00;;;;;10.54;89.75;99879.66;6754286;19;2827281;-60
2021/09/10 01:09:01;;;;;;;;;23.50;17.50;;;;;10.75;88.56;99876.69;6748722;19;2498108;-59
2021/09/10 01:11:30;;;;;;;;;26.00;23.00;;;;;9.81;91.50;99865.03;6747861;19;2491830;-60
2021/09/10 01:13:59;;;;;;;;;27.00;20.50;;;;;9.49;93.08;99872.16;6746359;19;2858498;-59
2021/09/10 01:16:27;;;;;;;;;21.50;20.50;;;;;9.65;93.27;99873.91;6752401;19;2498104;-59
2021/09/10 01:18:54;;;;;;;;;26.00;22.50;;;;;10.20;89.75;99880.72;6749316;19;2498123;-59
2021/09/10 01:21:23;;;;;;;;;25.00;21.50;;;;;10.20;88.92;99869.97;6750412;19;2494028;-59
2021/09/10 01:23:51;;;;;;;;;22.00;21.50;;;;;9.75;90.54;99874.28;6748854;19;2841824;-60
2021/09/10 01:26:19;;;;;;;;;23.00;20.00;;;;;9.65;90.78;99873.91;6751509;19;2498116;-59
2021/09/10 01:28:49;;;;;;;;;23.33;20.33;;;;;9.79;90.57;99875.84;6746709;19;3565785;-59
2021/09/10 01:31:18;;;;;;;;;21.50;21.50;;;;;9.57;91.28;99872.63;6747774;19;2839745;-59
2021/09/10 01:33:45;;;;;;;;;23.00;18.00;;;;;9.63;91.66;99874.94;6755576;19;2825197;-59
2021/09/10 01:36:14;;;;;;;;;26.00;22.00;;;;;9.35;93.07;99871.09;6754206;19;2840787;-60
2021/09/10 01:38:42;;;;;;;;;22.00;19.50;;;;;9.63;91.71;99878.50;6747253;19;2498092;-59
2021/09/10 01:41:09;;;;;;;;;19.50;18.00;;;;;9.53;92.09;99873.72;6754734;19;2817923;-59
2021/09/10 01:43:38;;;;;;;;;26.33;22.00;;;;;9.39;91.41;99869.09;6746858;19;3587680;-60
2021/09/10 01:46:06;;;;;;;;;25.00;19.50;;;;;9.32;93.17;99865.91;6750290;19;2834580;-60
2021/09/10 01:48:35;;;;;;;;;25.00;22.00;;;;;8.90;94.26;99874.38;6748335;19;2836655;-59
2021/09/10 01:51:03;;;;;;;;;27.00;25.00;;;;;9.22;94.18;99870.03;6749249;19;2498088;-59
2021/09/10 01:53:32;;;;;;;;;26.50;23.50;;;;;9.02;94.58;99873.75;6747651;19;2847049;-59
2021/09/10 01:56:01;;;;;;;;;26.00;19.00;;;;;9.00;94.38;99860.44;6750443;19;2498088;-60
2021/09/10 01:58:29;;;;;;;;;21.00;20.00;;;;;9.06;94.08;99863.72;6746775;19;2498242;-59
2021/09/10 02:00:56;;;;;;;;;23.00;19.00;;;;;8.75;94.26;99859.97;6752340;19;2825194;-60
2021/09/10 02:03:24;;;;;;;;;19.50;19.00;;;;;9.06;94.17;99856.56;6752192;19;2837702;-59
2021/09/10 02:05:52;;;;;;;;;24.00;21.50;;;;;8.97;93.76;99862.41;6747591;19;2489763;-60
2021/09/10 02:08:20;;;;;;;;;16.50;16.50;;;;;8.87;94.17;99863.81;6746475;19;2498100;-59
2021/09/10 02:10:47;;;;;;;;;22.00;22.00;;;;;8.58;95.53;99863.50;6752600;19;2839793;-60
2021/09/10 02:13:16;;;;;;;;;17.00;16.00;;;;;8.51;94.99;99862.09;6755419;19;2814806;-59
2021/09/10 02:15:43;;;;;;;;;17.50;17.00;;;;;8.53;94.65;99861.06;6751234;19;2498502;-59
2021/09/10 02:18:12;;;;;;;;;19.00;19.00;;;;;8.27;95.09;99867.69;6745553;19;3557433;-60
2021/09/10 02:20:40;;;;;;;;;23.33;18.67;;;;;8.09;95.62;99874.78;6747150;19;3563678;-59
2021/09/10 02:23:08;;;;;;;;;21.00;19.00;;;;;8.27;95.97;99869.50;6747239;19;2498088;-60
2021/09/10 02:25:35;;;;;;;;;23.50;20.00;;;;;8.12;95.62;99871.97;6755076;19;2833543;-60
2021/09/10 02:28:04;;;;;;;;;17.00;17.00;;;;;7.95;96.26;99861.22;6748964;19;3553266;-59
2021/09/10 02:30:34;;;;;;;;;22.00;20.00;;;;;7.96;97.00;99864.78;6780760;19;2498219;-59
2021/09/10 02:33:02;;;;;;;;;17.00;17.00;;;;;7.89;97.25;99872.19;6753990;19;2821055;-60
2021/09/10 02:35:30;;;;;;;;;24.00;21.00;;;;;7.93;97.44;99868.47;6746208;19;3582424;-60
2021/09/10 02:37:59;;;;;;;;;18.33;18.33;;;;;8.60;95.79;99866.09;6744870;19;3550509;-59
2021/09/10 02:40:27;;;;;;;;;16.00;16.00;;;;;8.32;96.04;99867.44;6746827;19;3549199;-59
2021/09/10 02:42:55;;;;;;;;;20.00;19.00;;;;;8.37;95.28;99860.06;6755218;19;2822073;-59
2021/09/10 02:45:23;;;;;;;;;19.67;17.67;;;;;7.84;97.30;99866.19;6752773;19;3550133;-59
2021/09/10 02:47:52;;;;;;;;;20.33;19.00;;;;;7.86;97.85;99867.88;6751103;19;3562663;-59
2021/09/10 02:50:22;;;;;;;;;18.33;18.33;;;;;8.48;96.63;99862.25;6754496;19;3562984;-59
2021/09/10 02:52:52;;;;;;;;;19.00;18.00;;;;;8.06;95.77;99861.56;6760353;19;2817985;-59
2021/09/10 02:55:20;;;;;;;;;22.50;19.50;;;;;8.13;96.34;99872.81;6756160;19;2491839;-59
2021/09/10 02:57:48;;;;;;;;;15.67;15.67;;;;;8.48;95.46;99868.47;6750860;19;3550533;-59
2021/09/10 03:00:21;;;;;;;;;25.00;20.33;;;;;8.25;96.81;99872.25;6751473;19;3560558;-60
2021/09/10 03:02:49;;;;;;;;;20.33;19.00;;;;;8.80;95.88;99876.69;6756687;19;3558474;-59
2021/09/10 03:05:18;;;;;;;;;24.67;20.67;;;;;8.81;95.22;99870.34;6754835;19;3568914;-59
2021/09/10 03:07:46;;;;;;;;;23.00;22.00;;;;;8.99;94.42;99863.19;6751319;19;2498120;-59
2021/09/10 03:10:14;;;;;;;;;25.50;22.00;;;;;9.20;93.31;99871.91;6755265;19;2852253;-59
2021/09/10 03:12:42;;;;;;;;;19.00;17.00;;;;;9.35;93.02;99864.88;6759489;19;2825162;-59
2021/09/10 03:15:13;;;;;;;;;18.00;18.00;;;;;8.91;94.31;99865.41;6754703;19;2498100;-59
2021/09/10 03:17:43;;;;;;;;;22.00;18.00;;;;;8.97;93.44;99859.72;6750928;19;3560561;-59
2021/09/10 03:20:12;;;;;;;;;23.00;18.00;;;;;8.94;94.92;99855.38;6754368;19;3554320;-59
2021/09/10 03:22:42;;;;;;;;;24.00;19.00;;;;;9.25;93.10;99859.13;6785917;19;3579303;-59
2021/09/10 03:25:11;;;;;;;;;18.00;16.00;;;;;9.20;93.11;99855.84;6753565;19;3548058;-59
2021/09/10 03:27:39;;;;;;;;;24.00;21.00;;;;;9.19;92.92;99852.31;6749055;19;2491887;-59
2021/09/10 03:30:08;;;;;;;;;21.00;21.00;;;;;9.20;92.29;99855.84;6753692;19;2494067;-60
2021/09/10 03:32:35;;;;;;;;;20.50;19.00;;;;;8.89;94.21;99848.53;6756959;19;2824156;-59
2021/09/10 03:35:04;;;;;;;;;22.00;18.00;;;;;8.73;95.61;99851.16;6750791;19;2824120;-59
2021/09/10 03:37:33;;;;;;;;;22.50;19.50;;;;;8.97;93.96;99849.00;6748097;19;2837674;-60
2021/09/10 03:40:04;;;;;;;;;21.50;21.50;;;;;8.41;96.15;99856.31;6749043;19;2831412;-59
2021/09/10 03:42:35;;;;;;;;;25.50;17.00;;;;;8.44;96.74;99848.13;6747595;19;2496067;-60
2021/09/10 03:45:07;;;;;;;;;21.50;18.00;;;;;8.35;96.60;99845.91;6751153;19;2489766;-59
2021/09/10 03:47:34;;;;;;;;;20.00;18.50;;;;;8.12;96.95;99849.72;6749309;19;2498128;-59
2021/09/10 03:50:04;;;;;;;;;47.00;35.00;;;;;7.61;97.56;99846.78;6746242;19;2865917;-59
2021/09/10 03:52:35;;;;;;;;;105.25;83.75;;;;;7.52;97.41;99855.22;6778836;19;3680373;-59
2021/09/10 03:55:05;;;;;;;;;67.67;52.00;;;;;7.73;97.36;99857.84;6746301;19;3641808;-59
2021/09/10 03:57:34;;;;;;;;;40.67;31.00;;;;;7.75;97.39;99858.63;6780650;19;3612643;-60
2021/09/10 04:00:04;;;;;;;;;32.67;30.67;;;;;7.56;97.56;99872.84;6780008;19;2851312;-59
2021/09/10 04:02:33;;;;;;;;;29.00;28.00;;;;;7.44;96.87;99868.06;6784354;19;2850169;-59
2021/09/10 04:05:01;;;;;;;;;21.50;20.50;;;;;7.26;97.46;99873.28;6746559;19;2835602;-59
2021/09/10 04:07:29;;;;;;;;;21.50;19.50;;;;;7.25;98.14;99876.91;6751316;19;2835619;-60
2021/09/10 04:09:56;;;;;;;;;29.00;22.00;;;;;7.37;98.00;99871.94;6748838;19;2496017;-59
2021/09/10 04:12:24;;;;;;;;;21.00;20.50;;;;;7.39;97.77;99875.41;6747177;19;2498103;-59
2021/09/10 04:14:52;;;;;;;;;26.00;23.50;;;;;7.56;97.83;99878.19;6747281;19;2839745;-60
2021/09/10 04:17:21;;;;;;;;;27.50;21.00;;;;;7.82;96.45;99868.97;6748809;19;2840787;-59
2021/09/10 04:19:50;;;;;;;;;27.50;23.00;;;;;7.53;97.48;99883.69;6749234;19;2850791;-59
2021/09/10 04:22:17;;;;;;;;;28.00;27.00;;;;;8.28;95.13;99876.56;6748951;19;2498135;-60
2021/09/10 04:24:46;;;;;;;;;29.00;25.00;;;;;8.19;94.91;99877.00;6748607;19;2833575;-59
2021/09/10 04:27:14;;;;;;;;;25.50;24.50;;;;;7.91;96.15;99879.22;6748731;19;2498104;-59
2021/09/10 04:29:42;;;;;;;;;31.00;25.00;;;;;8.07;96.11;99874.00;6748317;19;2856482;-60
2021/09/10 04:32:10;;;;;;;;;29.00;21.50;;;;;7.77;97.43;99875.47;6747255;19;2491880;-60
2021/09/10 04:34:38;;;;;;;;;27.50;23.50;;;;;7.74;97.69;99875.59;6749223;19;2842918;-60
2021/09/10 04:37:08;;;;;;;;;36.33;33.33;;;;;7.87;97.39;99877.63;6749347;19;3609018;-60
2021/09/10 04:39:37;;;;;;;;;47.33;38.00;;;;;8.45;94.44;99884.69;6779385;19;2867889;-59
2021/09/10 04:42:05;;;;;;;;;55.00;44.00;;;;;8.36;95.03;99883.28;6780031;19;2850166;-60
2021/09/10 04:44:34;;;;;;;;;57.50;46.00;;;;;8.46;95.19;99880.19;6746294;19;2862720;-59
2021/09/10 04:47:03;;;;;;;;;53.50;43.00;;;;;8.61;94.92;99884.78;6744641;19;2849170;-60
2021/09/10 04:49:31;;;;;;;;;49.50;42.00;;;;;8.42;94.92;99883.94;6745851;19;2858510;-60
2021/09/10 04:52:00;;;;;;;;;52.00;42.50;;;;;8.28;96.54;99887.28;6746745;19;2856447;-60
2021/09/10 04:54:29;;;;;;;;;58.00;46.00;;;;;8.43;96.21;99891.91;6744961;19;2874158;-59
2021/09/10 04:56:58;;;;;;;;;56.33;44.00;;;;;8.59;95.69;99888.47;6779438;19;2871085;-60
2021/09/10 04:59:27;;;;;;;;;48.33;40.33;;;;;8.95;95.35;99897.31;6778758;19;2855431;-59
2021/09/10 05:01:56;;;;;;;;;45.50;40.50;;;;;8.92;94.11;99894.75;6780741;19;2849124;-60
2021/09/10 05:04:30;;;;;;;;;57.00;45.50;;;;;8.91;94.43;99901.06;6745269;19;2854379;-59
2021/09/10 05:06:59;;;;;;;;;64.67;49.00;;;;;9.11;93.68;99904.53;6744895;19;3627269;-58
2021/09/10 05:09:28;;;;;;;;;61.67;48.67;;;;;9.14;93.28;99907.06;6778294;19;2864929;-59
2021/09/10 05:11:58;;;;;;;;;56.33;44.00;;;;;9.17;93.50;99906.91;6777784;19;3615795;-60
2021/09/10 05:14:27;;;;;;;;;68.00;53.00;;;;;9.36;93.38;99904.13;6777884;19;3618928;-59
2021/09/10 05:16:56;;;;;;;;;82.67;66.67;;;;;9.39;92.35;99910.16;6778737;19;3659512;-60
2021/09/10 05:19:26;;;;;;;;;71.67;53.33;;;;;9.64;92.04;99911.56;6742050;19;3644953;-60
2021/09/10 05:21:55;;;;;;;;;80.00;60.00;;;;;9.63;91.78;99910.66;6744678;19;3634891;-60
2021/09/10 05:24:24;;;;;;;;;67.67;53.00;;;;;9.87;91.02;99911.16;6777237;19;3641808;-59
2021/09/10 05:26:54;;;;;;;;;64.00;50.00;;;;;9.86;91.01;99909.41;6778442;19;3633459;-59
2021/09/10 05:29:23;;;;;;;;;81.00;63.00;;;;;10.12;90.65;99915.16;6778933;19;3647017;-59
2021/09/10 05:31:54;;;;;;;;;109.00;96.75;;;;;10.33;89.68;99913.97;6744426;19;3688678;-59
2021/09/10 05:34:22;;;;;;;;;79.00;61.00;;;;;10.48;89.61;99916.75;6741036;19;2766922;-59
2021/09/10 05:36:51;;;;;;;;;48.00;39.50;;;;;10.67;88.85;99919.22;6745368;19;2850181;-59
2021/09/10 05:39:21;;;;;;;;;50.33;37.33;;;;;10.77;88.57;99912.38;6741972;19;3596020;-61
2021/09/10 05:41:50;;;;;;;;;53.00;41.33;;;;;11.38;86.71;99924.81;6778347;19;2862788;-60
2021/09/10 05:44:20;;;;;;;;;32.33;27.33;;;;;11.89;82.90;99924.38;6777774;19;2854415;-59
2021/09/10 05:46:49;;;;;;;;;53.33;42.67;;;;;11.46;85.92;99921.66;6776225;19;2857891;-60
2021/09/10 05:49:18;;;;;;;;;133.67;113.33;;;;;11.65;84.92;99916.84;6781141;19;3732461;-60
2021/09/10 05:51:48;;;;;;;;;133.00;114.00;;;;;12.03;83.94;99924.38;6740736;19;3715791;-60
2021/09/10 05:54:17;;;;;;;;;219.50;169.75;;;;;14.23;75.04;99925.59;6746828;19;4445967;-60
2021/09/10 05:56:47;;;;;;;;;344.50;272.50;;;;;13.56;75.77;99928.56;6778098;19;4515759;-59
2021/09/10 05:59:17;;;;;;;;;110.00;92.33;;;;;13.24;77.48;99930.78;6782309;19;3698036;-59
2021/09/10 06:01:46;;;;;;;;;70.67;53.33;;;;;13.65;75.38;99930.63;6741378;19;3645979;-60
2021/09/10 06:04:16;;;;;;;;;51.00;40.67;;;;;13.30;76.49;99936.66;6778288;19;3620972;-60
2021/09/10 06:06:44;;;;;;;;;50.50;42.00;;;;;13.79;75.10;99932.34;6776354;19;2843904;-60
2021/09/10 06:09:14;;;;;;;;;47.33;39.67;;;;;14.13;73.03;99935.31;6743530;19;3615839;-60
2021/09/10 06:11:43;;;;;;;;;27.33;25.00;;;;;15.32;69.63;99941.75;6778569;19;2852315;-60
2021/09/10 06:14:13;;;;;;;;;63.67;50.33;;;;;17.12;62.93;99939.00;6779437;19;3614711;-60
2021/09/10 06:16:41;;;;;;;;;41.00;34.00;;;;;16.04;65.40;99949.69;6777203;19;2840791;-60
2021/09/10 06:19:11;;;;;;;;;91.50;77.50;;;;;18.14;60.32;99952.81;6748787;19;3665802;-60
2021/09/10 06:21:41;;;;;;;;;47.67;38.00;;;;;19.12;55.73;99959.41;6743897;19;3602334;-60
2021/09/10 06:24:09;;;;;;;;;28.33;25.33;;;;;17.25;61.84;99953.25;6785410;19;3591827;-60
2021/09/10 06:26:38;;;;;;;;;23.50;20.00;;;;;18.21;58.96;99957.56;6749124;19;2841900;-60
2021/09/10 06:29:06;;;;;;;;;21.33;19.33;;;;;18.94;56.30;99960.09;6755455;19;3581382;-60
2021/09/10 06:31:35;;;;;;;;;24.33;22.00;;;;;22.00;48.79;99977.31;6746002;19;2848155;-61
2021/09/10 06:34:04;;;;;;;;;32.33;29.00;;;;;23.00;45.88;99967.53;6782763;19;3586594;-61
2021/09/10 06:36:33;;;;;;;;;35.75;29.25;;;;;21.34;48.71;99966.88;6754963;19;3622062;-62
2021/09/10 06:39:03;;;;;;;;;23.33;20.33;;;;;18.37;57.02;99956.19;6778499;19;2844968;-61
2021/09/10 06:41:31;;;;;;;;;21.00;19.50;;;;;15.50;68.29;99951.16;6778370;19;2841868;-60
2021/09/10 06:44:00;;;;;;;;;24.00;24.00;;;;;15.95;68.13;99951.25;6744530;19;2850157;-60
2021/09/10 06:46:29;;;;;;;;;27.67;24.33;;;;;15.92;68.04;99956.91;6748186;19;3594951;-59
2021/09/10 06:48:58;;;;;;;;;26.67;25.67;;;;;16.26;66.84;99958.78;6782086;19;3593917;-60
2021/09/10 06:51:27;;;;;;;;;61.75;47.50;;;;;16.46;66.74;99958.88;6751537;19;4391795;-60
2021/09/10 06:53:57;;;;;;;;;52.00;39.67;;;;;16.21;67.41;99961.84;6776999;19;3629313;-60
2021/09/10 06:56:25;;;;;;;;;30.00;29.33;;;;;16.64;66.92;99959.22;6748452;19;3588676;-60
2021/09/10 06:58:54;;;;;;;;;27.67;25.00;;;;;17.12;65.58;99963.41;6743604;19;3591799;-60
2021/09/10 07:01:23;;;;;;;;;27.67;25.67;;;;;17.23;66.40;99968.78;6783864;19;3591796;-60
2021/09/10 07:03:52;;;;;;;;;36.33;32.00;;;;;17.69;64.54;99964.84;6751380;19;3602262;-60
2021/09/10 07:06:21;;;;;;;;;31.33;27.33;;;;;17.92;63.83;99967.44;6742540;19;3597037;-60
2021/09/10 07:08:50;;;;;;;;;22.00;20.00;;;;;17.62;64.18;99966.38;6776565;19;2835615;-60
2021/09/10 07:11:18;;;;;;;;;24.00;21.00;;;;;17.44;65.22;99967.97;6744940;19;2838802;-60
2021/09/10 07:13:47;;;;;;;;;23.00;22.00;;;;;17.88;63.42;99960.56;6743571;19;2839741;-60
2021/09/10 07:16:16;;;;;;;;;21.50;21.00;;;;;18.00;63.91;99970.34;6744994;19;2840791;-60
2021/09/10 07:18:45;;;;;;;;;27.67;21.33;;;;;18.51;63.21;99974.84;6742903;19;3610544;-60
2021/09/10 07:21:14;;;;;;;;;23.00;21.00;;;;;24.71;46.07;99992.28;6777850;19;2841836;-59
2021/09/10 07:23:44;;;;;;;;;19.00;18.00;;;;;22.35;50.22;99981.84;6744783;19;2839753;-60
2021/09/10 07:26:11;;;;;;;;;16.00;15.00;;;;;18.55;60.29;99970.84;6780833;19;2485592;-60
2021/09/10 07:28:40;;;;;;;;;18.50;18.50;;;;;19.23;59.58;99979.16;6747858;19;2825193;-60
2021/09/10 07:31:09;;;;;;;;;20.00;18.00;;;;;19.45;59.15;99980.72;6751825;19;2831432;-60
2021/09/10 07:33:42;;;;;;;;;17.00;17.00;;;;;19.53;58.32;99980.84;6756549;19;3555341;-59
2021/09/10 07:36:10;;;;;;;;;19.33;18.00;;;;;19.69;58.76;99979.44;6791184;19;3568902;-60
2021/09/10 07:38:39;;;;;;;;;18.00;17.50;;;;;19.89;57.62;99986.56;6747193;19;2823107;-61
2021/09/10 07:41:07;;;;;;;;;21.00;21.00;;;;;20.01;57.14;99989.13;6751507;19;2819019;-60
2021/09/10 07:43:35;;;;;;;;;19.00;19.00;;;;;20.07;57.00;99992.13;6749930;19;2827257;-60
2021/09/10 07:46:04;;;;;;;;;22.00;16.50;;;;;20.11;56.75;99992.69;6751521;19;2841828;-60
2021/09/10 07:48:33;;;;;;;;;20.50;20.50;;;;;20.38;56.29;99992.72;6748517;19;2837677;-60
2021/09/10 07:51:02;;;;;;;;;17.50;16.50;;;;;20.46;55.04;100002.00;6750744;19;2837747;-59
2021/09/10 07:53:30;;;;;;;;;17.33;17.33;;;;;20.61;54.79;100006.00;6751068;19;2485711;-60
2021/09/10 07:55:59;;;;;;;;;18.00;16.67;;;;;20.66;54.98;100006.41;6786032;19;2481461;-60
2021/09/10 07:58:27;;;;;;;;;18.50;17.00;;;;;20.44;54.71;99998.59;6781675;19;2822033;-59
2021/09/10 08:00:55;;;;;;;;;16.00;15.00;;;;;21.01;54.51;99996.56;6750431;19;2814758;-60
2021/09/10 08:03:27;;;;;;;;;16.00;16.00;;;;;21.53;53.41;99996.78;6751063;19;2822037;-60
2021/09/10 08:05:57;;;;;;;;;20.00;18.00;;;;;21.58;52.65;100005.34;6750218;19;2821022;-60
2021/09/10 08:08:25;;;;;;;;;22.00;19.00;;;;;21.49;52.25;99989.94;6754386;19;3575124;-60
2021/09/10 08:10:54;;;;;;;;;20.33;19.67;;;;;21.68;51.39;99989.72;6755317;19;3565752;-59
2021/09/10 08:13:22;;;;;;;;;19.50;17.00;;;;;21.32;51.67;99993.47;6749894;19;2819946;-60
2021/09/10 08:15:51;;;;;;;;;22.50;21.00;;;;;21.74;52.32;99992.84;6750092;19;2829353;-60
2021/09/10 08:18:19;;;;;;;;;24.67;20.00;;;;;22.07;51.37;99988.47;6754276;19;3591822;-60
2021/09/10 08:20:49;;;;;;;;;22.33;20.67;;;;;22.28;50.41;99986.25;6749028;19;2826200;-60
2021/09/10 08:23:17;;;;;;;;;21.33;18.00;;;;;22.44;48.54;99990.09;6789224;19;3568878;-60
2021/09/10 08:25:46;;;;;;;;;20.00;19.00;;;;;22.50;49.30;99995.75;6753330;19;3559516;-60
2021/09/10 08:28:15;;;;;;;;;25.33;23.67;;;;;22.51;47.50;99992.00;6751655;19;3585545;-60
2021/09/10 08:30:45;;;;;;;;;24.00;24.00;;;;;22.93;47.84;99993.88;6755280;19;3586594;-60
2021/09/10 08:33:14;;;;;;;;;30.67;27.00;;;;;22.73;48.85;99989.69;6752848;19;3596998;-60
2021/09/10 08:35:42;;;;;;;;;20.00;20.00;;;;;22.57;47.73;99994.06;6755979;19;3566835;-60
2021/09/10 08:38:10;;;;;;;;;17.67;17.67;;;;;23.22;48.21;99995.31;6750750;19;3552248;-60
2021/09/10 08:40:40;;;;;;;;;17.00;15.50;;;;;23.22;47.54;99998.06;6781905;19;2818952;-60
2021/09/10 08:43:08;;;;;;;;;17.00;15.00;;;;;23.36;46.97;99985.59;6749276;19;2817867;-60
2021/09/10 08:45:37;;;;;;;;;23.00;20.00;;;;;23.54;47.45;99997.25;6753820;19;3560542;-60
2021/09/10 08:48:06;;;;;;;;;17.50;16.00;;;;;23.25;45.88;99985.91;6745916;19;2818921;-59
2021/09/10 08:50:38;;;;;;;;;16.00;12.00;;;;;23.37;46.47;99982.66;6745465;19;3526180;-60
2021/09/10 08:53:06;;;;;;;;;15.00;14.00;;;;;23.41;47.21;99994.16;6776598;19;3533483;-60
2021/09/10 08:55:39;;;;;;;;;19.50;14.00;;;;;23.53;46.33;99987.31;6742048;19;2809546;-60
2021/09/10 08:58:07;;;;;;;;;14.00;14.00;;;;;23.80;45.27;99986.16;6743353;19;3532441;-60
2021/09/10 09:00:40;;;;;;;;;10.67;10.67;;;;;23.64;46.33;99983.34;6745238;19;3515779;-60
2021/09/10 09:03:11;;;;;;;;;11.00;11.00;;;;;23.70;45.67;99977.22;6776657;19;2803289;-60
2021/09/10 09:05:41;;;;;;;;;9.80;9.00;;;;;22.65;47.24;99973.25;6771815;19;2774174;-60
2021/09/10 09:08:13;;;;;;;;;15.00;13.67;;;;;23.65;46.45;99974.13;6744268;19;3539751;-59
2021/09/10 09:10:58;;;;;;;;;17.33;14.00;;;;;24.20;45.47;99969.78;6742555;19;3543916;-60
2021/09/10 09:13:37;;;;;;;;;19.33;14.00;;;;;24.25;44.76;99979.22;6748694;19;3554296;-60
2021/09/10 09:16:25;;;;;;;;;15.67;15.33;;;;;24.48;45.04;99972.97;6752593;19;2483510;-61
2021/09/10 09:19:08;;;;;;;;;16.00;14.33;;;;;24.36;44.51;99972.47;6786732;19;2812698;-62
2021/09/10 09:21:39;;;;;;;;;14.67;13.00;;;;;24.02;45.88;99972.75;6787154;19;3535559;-62
2021/09/10 09:24:13;;;;;;;;;13.33;13.33;;;;;24.85;45.02;99965.94;6786059;19;2481446;-61
2021/09/10 09:26:45;;;;;;;;;21.50;17.00;;;;;24.74;44.48;99975.44;6780850;19;2821000;-62
2021/09/10 09:29:17;;;;;;;;;18.50;16.00;;;;;24.81;43.61;99970.09;6745956;19;2822088;-61
2021/09/10 09:32:01;;;;;;;;;16.00;15.00;;;;;24.38;42.63;99970.44;6750850;19;2813730;-60
2021/09/10 09:34:48;;;;;;;;;16.50;15.00;;;;;25.02;42.65;99958.47;6745798;19;2818944;-59
2021/09/10 09:37:19;;;;;;;;;12.67;12.67;;;;;24.26;42.08;99960.84;6759886;19;2782452;-60
2021/09/10 09:40:01;;;;;;;;;16.00;13.33;;;;;24.66;43.97;99965.34;6782076;19;3543884;-59
2021/09/10 09:42:33;;;;;;;;;15.00;12.67;;;;;25.26;43.00;99954.72;6750246;19;3516853;-61
2021/09/10 09:45:24;;;;;;;;;14.00;13.00;;;;;24.92;43.07;99944.97;6790342;19;2791854;-60
2021/09/10 09:47:53;;;;;;;;;19.50;17.00;;;;;25.51;40.49;99952.63;6779419;19;2829385;-60
2021/09/10 09:50:22;;;;;;;;;13.00;11.67;;;;;25.23;41.40;99944.97;6744987;19;3523075;-60
2021/09/10 09:52:52;;;;;;;;;11.33;11.33;;;;;25.31;41.12;99944.03;6746046;19;3508516;-62
2021/09/10 09:55:20;;;;;;;;;14.33;12.67;;;;;25.92;40.27;99942.13;6742722;19;3524281;-63
2021/09/10 09:57:50;;;;;;;;;15.67;13.67;;;;;25.71;40.73;99940.06;6786547;19;2481458;-63
2021/09/10 10:00:19;;;;;;;;;14.33;14.00;;;;;25.66;40.65;99938.94;6775310;19;3526206;-61
2021/09/10 10:02:47;;;;;;;;;17.67;13.00;;;;;25.76;37.90;99936.78;6748562;19;3539717;-62
2021/09/10 10:05:18;;;;;;;;;14.67;12.00;;;;;25.94;37.83;99936.47;6747673;19;3527217;-62
2021/09/10 10:08:01;;;;;;;;;14.00;11.00;;;;;25.80;38.55;99932.59;6746510;19;3531406;-59
2021/09/10 10:10:40;;;;;;;;;11.50;11.50;;;;;25.54;39.67;99919.25;6779241;19;3394927;-60
2021/09/10 10:13:12;;;;;;;;;12.00;12.00;;;;;25.36;38.31;99914.97;6776696;19;3525194;-60
2021/09/10 10:15:47;;;;;;;;;13.33;11.67;;;;;25.53;37.16;99921.16;6742683;19;3519958;-60
2021/09/10 10:18:37;;;;;;;;;11.00;11.00;;;;;26.43;37.05;99914.69;6777991;19;3510552;-61
2021/09/10 10:21:07;;;;;;;;;12.67;11.67;;;;;26.47;37.70;99916.03;6786086;19;2481450;-61
2021/09/10 10:23:44;;;;;;;;;11.00;11.00;;;;;26.57;37.11;99912.13;6787690;19;3513680;-60
2021/09/10 10:26:35;;;;;;;;;13.00;12.00;;;;;26.34;36.40;99918.59;6779181;19;3521376;-60
2021/09/10 10:29:13;;;;;;;;;10.00;10.00;;;;;25.54;36.82;99914.63;6744236;19;3498088;-60
2021/09/10 10:32:07;;;;;;;;;12.00;12.00;;;;;26.22;36.79;99915.47;6780558;19;3518924;-62
2021/09/10 10:35:15;;;;;;;;;14.67;13.00;;;;;25.97;36.56;99909.41;6751606;19;3514715;-60
2021/09/10 10:37:48;;;;;;;;;9.67;9.67;;;;;26.16;35.85;99904.38;6778254;19;3487727;-59
2021/09/10 10:40:47;;;;;;;;;13.00;12.67;;;;;26.13;36.34;99905.63;6781489;19;3534648;-61
2021/09/10 10:43:18;;;;;;;;;13.00;13.00;;;;;26.01;36.78;99907.13;6743920;19;3532421;-60
2021/09/10 10:45:47;;;;;;;;;11.33;10.00;;;;;25.84;36.36;99907.31;6780977;19;2787656;-61
2021/09/10 10:48:33;;;;;;;;;15.33;11.00;;;;;26.21;36.56;99904.66;6777288;19;3506377;-60
2021/09/10 10:51:21;;;;;;;;;13.33;12.00;;;;;26.33;35.94;99903.16;6781811;19;3515792;-60
2021/09/10 10:53:52;;;;;;;;;8.67;6.67;;;;;25.76;35.85;99892.75;6751201;19;2744957;-60
2021/09/10 10:56:29;;;;;;;;;14.00;12.00;;;;;26.63;35.69;99900.38;6782735;19;2487680;-60
2021/09/10 10:59:15;;;;;;;;;17.67;13.67;;;;;26.39;33.41;99898.78;6775079;19;3530338;-58
2021/09/10 11:02:17;;;;;;;;;11.67;10.33;;;;;26.80;33.93;99901.81;6747036;19;2780416;-61
2021/09/10 11:04:51;;;;;;;;;13.67;10.67;;;;;26.25;33.19;99892.22;6784691;19;3506381;-60
2021/09/10 11:07:28;;;;;;;;;7.00;7.00;;;;;26.32;33.29;99886.81;6816942;19;2748083;-61
2021/09/10 11:09:59;;;;;;;;;9.80;9.80;;;;;26.61;33.38;99888.69;6782958;19;2783489;-60
2021/09/10 11:12:28;;;;;;;;;11.33;11.00;;;;;26.50;33.40;99885.34;6762257;19;2787668;-61
2021/09/10 11:14:57;;;;;;;;;8.67;8.67;;;;;27.25;32.65;99886.03;6788831;19;2746006;-60
2021/09/10 11:17:27;;;;;;;;;10.33;10.33;;;;;27.18;32.50;99893.38;6783776;19;2791822;-60
2021/09/10 11:19:58;;;;;;;;;10.33;9.67;;;;;26.29;33.67;99871.53;6784885;19;3502227;-61